createdAt,value
2022-12-16T00:01:19.342Z,68.39
2022-12-16T00:03:52.003Z,68.28
2022-12-16T00:06:20.245Z,69.01
2022-12-16T00:08:47.104Z,68.12
2022-12-16T00:11:14.645Z,69.15
2022-12-16T00:13:41.403Z,69.04
2022-12-16T00:16:11.475Z,68.57
2022-12-16T00:18:38.934Z,69.13
2022-12-16T00:21:06.701Z,69.12
2022-12-16T00:23:35.320Z,69.24
2022-12-16T00:26:02.723Z,69.44
2022-12-16T00:28:29.351Z,69.14
2022-12-16T00:30:56.993Z,68.80
2022-12-16T00:33:25.736Z,68.70
2022-12-16T00:35:53.167Z,68.67
2022-12-16T00:38:20.977Z,68.20
2022-12-16T00:40:48.154Z,68.89
2022-12-16T00:43:14.773Z,68.70
2022-12-16T00:45:41.453Z,69.04
2022-12-16T00:48:08.776Z,69.40
2022-12-16T00:50:36.167Z,69.62
2022-12-16T00:53:03.808Z,69.29
2022-12-16T00:55:31.466Z,70.06
2022-12-16T00:57:58.924Z,69.36
2022-12-16T01:00:25.590Z,68.94
2022-12-16T01:02:53.722Z,69.24
2022-12-16T01:05:22.836Z,68.78
2022-12-16T01:07:49.523Z,68.19
2022-12-16T01:10:18.705Z,68.65
2022-12-16T01:12:45.600Z,67.89
2022-12-16T01:15:12.590Z,68.84
2022-12-16T01:17:39.764Z,68.61
2022-12-16T01:20:07.672Z,68.79
2022-12-16T01:22:35.344Z,68.58
2022-12-16T01:25:02.523Z,68.49
2022-12-16T01:27:29.341Z,68.98
2022-12-16T01:29:56.247Z,68.52
2022-12-16T01:32:23.243Z,68.47
2022-12-16T01:34:55.087Z,69.22
2022-12-16T01:37:23.450Z,69.24
2022-12-16T01:39:50.371Z,69.31
2022-12-16T01:42:20.482Z,69.14
2022-12-16T01:44:49.159Z,68.51
2022-12-16T01:47:28.137Z,69.10
2022-12-16T01:50:04.345Z,69.03
2022-12-16T01:52:35.393Z,68.47
2022-12-16T01:55:25.687Z,68.90
2022-12-16T01:57:59.566Z,69.22
2022-12-16T02:00:26.333Z,68.76
2022-12-16T02:02:53.876Z,68.55
2022-12-16T02:05:21.644Z,69.25
2022-12-16T02:08:06.495Z,68.83
2022-12-16T02:10:41.968Z,69.83
2022-12-16T02:13:23.607Z,69.12
2022-12-16T02:16:12.723Z,69.81
2022-12-16T02:18:49.822Z,69.43
2022-12-16T02:21:27.547Z,69.47
2022-12-16T02:24:26.383Z,69.15
2022-12-16T02:27:10.321Z,68.36
2022-12-16T02:29:36.933Z,68.34
2022-12-16T02:32:09.277Z,68.54
2022-12-16T02:34:51.055Z,68.15
2022-12-16T02:37:37.627Z,67.98
2022-12-16T02:40:14.782Z,68.07
2022-12-16T02:42:47.605Z,68.30
2022-12-16T02:45:23.238Z,68.54
2022-12-16T02:47:49.964Z,68.18
2022-12-16T02:50:35.027Z,68.78
2022-12-16T02:53:02.907Z,69.02
2022-12-16T02:56:14.459Z,69.33
2022-12-16T02:59:02.290Z,68.84
2022-12-16T03:02:00.914Z,68.75
2022-12-16T03:04:39.457Z,68.76
2022-12-16T03:07:09.875Z,68.36
2022-12-16T03:09:39.181Z,68.93
2022-12-16T03:12:12.004Z,68.45
2022-12-16T03:14:42.237Z,68.57
2022-12-16T03:17:09.926Z,68.90
2022-12-16T03:19:40.614Z,69.30
2022-12-16T03:22:18.735Z,68.12
2022-12-16T03:24:45.966Z,68.42
2022-12-16T03:27:20.726Z,67.20
2022-12-16T03:29:58.359Z,67.62
2022-12-16T03:32:53.968Z,67.83
2022-12-16T03:35:29.125Z,67.72
2022-12-16T03:37:58.686Z,68.12
2022-12-16T03:40:28.206Z,68.58
2022-12-16T03:42:56.923Z,68.68
2022-12-16T03:45:27.778Z,67.78
2022-12-16T03:47:57.820Z,67.90
2022-12-16T03:50:29.629Z,68.61
2022-12-16T03:52:56.523Z,67.87
2022-12-16T03:55:23.744Z,68.04
2022-12-16T03:57:50.755Z,67.36
2022-12-16T04:00:17.676Z,66.88
2022-12-16T04:02:44.830Z,68.58
2022-12-16T04:05:11.618Z,67.46
2022-12-16T04:07:38.500Z,67.52
2022-12-16T04:10:06.856Z,69.00
2022-12-16T04:12:33.776Z,67.63
2022-12-16T04:15:00.431Z,68.86
2022-12-16T04:17:27.295Z,68.74
2022-12-16T04:19:55.176Z,68.05
2022-12-16T04:22:33.560Z,68.50
2022-12-16T04:25:10.651Z,68.18
2022-12-16T04:27:37.404Z,68.93
2022-12-16T04:30:05.369Z,69.50
2022-12-16T04:32:32.453Z,69.15
2022-12-16T04:34:59.278Z,68.40
2022-12-16T04:37:25.996Z,69.44
2022-12-16T04:39:52.560Z,70.36
2022-12-16T04:42:19.202Z,71.11
2022-12-16T04:44:45.871Z,69.91
2022-12-16T04:47:12.615Z,71.51
2022-12-16T04:49:39.247Z,70.78
2022-12-16T04:52:05.895Z,71.14
2022-12-16T04:54:32.476Z,71.65
2022-12-16T04:56:59.195Z,71.17
2022-12-16T04:59:25.794Z,71.59
2022-12-16T05:01:52.748Z,71.01
2022-12-16T05:04:19.463Z,71.47
2022-12-16T05:06:46.151Z,72.73
2022-12-16T05:09:12.731Z,72.77
2022-12-16T05:11:39.498Z,72.87
2022-12-16T05:14:06.115Z,72.79
2022-12-16T05:16:32.849Z,72.75
2022-12-16T05:18:59.627Z,72.99
2022-12-16T05:21:26.311Z,72.89
2022-12-16T05:23:52.961Z,73.73
2022-12-16T05:26:19.683Z,74.54
2022-12-16T05:28:46.268Z,74.94
2022-12-16T05:31:13.026Z,75.31
2022-12-16T05:33:39.796Z,76.61
2022-12-16T05:36:06.711Z,77.14
2022-12-16T05:38:33.364Z,77.86
2022-12-16T05:41:00.129Z,78.10
2022-12-16T05:43:26.713Z,78.71
2022-12-16T05:45:53.463Z,79.72
2022-12-16T05:48:20.143Z,79.69
2022-12-16T05:50:46.826Z,79.72
2022-12-16T05:53:13.402Z,79.33
2022-12-16T05:55:41.619Z,78.76
2022-12-16T05:58:08.713Z,78.33
2022-12-16T06:00:36.336Z,77.29
2022-12-16T06:03:03.096Z,77.08
2022-12-16T06:05:29.921Z,76.96
2022-12-16T06:07:56.511Z,77.66
2022-12-16T06:10:23.348Z,77.18
2022-12-16T06:12:49.914Z,76.62
2022-12-16T06:15:16.676Z,76.39
2022-12-16T06:17:49.988Z,76.21
2022-12-16T06:20:17.019Z,76.91
2022-12-16T06:22:43.604Z,76.85
2022-12-16T06:25:10.331Z,77.41
2022-12-16T06:27:36.887Z,78.26
2022-12-16T06:30:05.356Z,78.52
2022-12-16T06:32:31.997Z,79.08
2022-12-16T06:34:58.645Z,79.51
2022-12-16T06:37:25.240Z,79.80
2022-12-16T06:39:53.232Z,80.84
2022-12-16T06:42:20.144Z,81.12
2022-12-16T06:44:46.778Z,80.88
2022-12-16T06:47:13.421Z,81.23
2022-12-16T06:49:40.150Z,80.78
2022-12-16T06:52:06.750Z,80.12
2022-12-16T06:54:33.476Z,80.21
2022-12-16T06:57:00.122Z,80.59
2022-12-16T06:59:26.780Z,80.08
2022-12-16T07:01:53.606Z,81.39
2022-12-16T07:04:20.312Z,81.05
2022-12-16T07:06:46.912Z,80.67
2022-12-16T07:09:13.827Z,80.83
2022-12-16T07:11:40.434Z,80.60
2022-12-16T07:14:07.118Z,80.45
2022-12-16T07:16:33.854Z,80.21
2022-12-16T07:19:00.643Z,80.01
2022-12-16T07:21:27.416Z,79.80
2022-12-16T07:23:54.158Z,79.29
2022-12-16T07:26:21.152Z,79.92
2022-12-16T07:28:47.863Z,79.47
2022-12-16T07:31:14.637Z,79.75
2022-12-16T07:33:41.346Z,79.86
2022-12-16T07:36:08.337Z,80.16
2022-12-16T07:38:35.052Z,80.50
2022-12-16T07:41:02.591Z,80.68
2022-12-16T07:43:29.353Z,80.34
2022-12-16T07:45:56.237Z,80.36
2022-12-16T07:48:22.970Z,80.53
2022-12-16T07:50:49.551Z,80.68
2022-12-16T07:53:16.262Z,79.95
2022-12-16T07:55:42.964Z,79.69
2022-12-16T07:58:10.270Z,79.45
2022-12-16T08:00:37.402Z,78.82
2022-12-16T08:03:04.572Z,78.67
2022-12-16T08:05:31.312Z,78.93
2022-12-16T08:07:58.103Z,78.63
2022-12-16T08:10:24.774Z,78.59
2022-12-16T08:12:51.397Z,78.75
2022-12-16T08:15:18.055Z,78.77
2022-12-16T08:17:52.485Z,78.85
2022-12-16T08:20:19.375Z,79.65
2022-12-16T08:22:45.958Z,79.51
2022-12-16T08:25:12.672Z,79.62
2022-12-16T08:27:39.301Z,79.77
2022-12-16T08:30:06.804Z,79.41
2022-12-16T08:32:33.376Z,79.14
2022-12-16T08:35:00.794Z,78.73
2022-12-16T08:37:27.464Z,79.07
2022-12-16T08:40:11.090Z,78.64
2022-12-16T08:42:40.831Z,78.40
2022-12-16T08:45:07.653Z,79.34
2022-12-16T08:47:34.359Z,80.01
2022-12-16T08:50:02.214Z,80.57
2022-12-16T08:52:30.036Z,80.33
2022-12-16T08:54:56.648Z,80.27
2022-12-16T08:57:23.651Z,80.51
2022-12-16T08:59:50.263Z,80.97
2022-12-16T09:02:17.915Z,80.81
2022-12-16T09:04:44.976Z,80.21
2022-12-16T09:07:12.106Z,79.58
2022-12-16T09:09:38.736Z,80.15
2022-12-16T09:12:05.672Z,79.87
2022-12-16T09:14:32.294Z,79.81
2022-12-16T09:16:58.909Z,79.53
2022-12-16T09:19:26.137Z,78.97
2022-12-16T09:21:53.171Z,78.55
2022-12-16T09:24:21.547Z,78.50
2022-12-16T09:26:48.524Z,78.45
2022-12-16T09:29:15.201Z,78.29
2022-12-16T09:31:41.896Z,77.87
2022-12-16T09:34:08.765Z,77.43
2022-12-16T09:36:35.434Z,77.66
2022-12-16T09:39:02.043Z,77.64
2022-12-16T09:41:42.866Z,78.71
2022-12-16T09:44:23.828Z,79.49
2022-12-16T09:47:18.421Z,80.01
2022-12-16T09:49:50.776Z,81.02
2022-12-16T09:52:19.262Z,81.13
2022-12-16T09:54:47.573Z,80.47
2022-12-16T09:57:15.260Z,81.21
2022-12-16T09:59:45.570Z,80.85
2022-12-16T10:02:14.980Z,81.35
2022-12-16T10:04:43.311Z,81.69
2022-12-16T10:07:18.928Z,81.13
2022-12-16T10:10:05.207Z,80.26
2022-12-16T10:12:52.593Z,80.43
2022-12-16T10:15:33.982Z,81.12
2022-12-16T10:18:05.084Z,81.08
2022-12-16T10:20:43.254Z,80.09
2022-12-16T10:23:43.105Z,80.39
2022-12-16T10:26:43.213Z,81.25
2022-12-16T10:29:22.282Z,80.17
2022-12-16T10:31:49.090Z,80.81
2022-12-16T10:34:38.323Z,79.90
2022-12-16T10:37:09.276Z,80.44
2022-12-16T10:39:44.707Z,80.49
2022-12-16T10:42:22.619Z,79.43
2022-12-16T10:44:55.699Z,78.84
2022-12-16T10:47:22.864Z,78.57
2022-12-16T10:49:55.030Z,78.47
2022-12-16T10:52:22.186Z,78.52
2022-12-16T10:55:06.890Z,77.94
2022-12-16T10:58:15.118Z,78.10
2022-12-16T11:00:49.621Z,78.59
2022-12-16T11:03:17.788Z,78.33
2022-12-16T11:05:44.942Z,78.39
2022-12-16T11:08:24.133Z,77.43
2022-12-16T11:10:51.181Z,77.47
2022-12-16T11:13:28.619Z,77.17
2022-12-16T11:16:07.718Z,77.41
2022-12-16T11:18:34.872Z,76.81
2022-12-16T11:21:09.130Z,76.51
2022-12-16T11:23:37.624Z,75.40
2022-12-16T11:26:04.415Z,75.55
2022-12-16T11:28:32.653Z,73.85
2022-12-16T11:31:13.998Z,74.22
2022-12-16T11:33:47.363Z,74.57
2022-12-16T11:36:19.392Z,74.52
2022-12-16T11:38:48.707Z,74.34
2022-12-16T11:41:25.118Z,74.79
2022-12-16T11:43:53.815Z,74.39
2022-12-16T11:46:28.924Z,73.88
2022-12-16T11:49:06.749Z,73.53
2022-12-16T11:51:35.213Z,73.31
2022-12-16T11:54:10.655Z,73.40
2022-12-16T11:56:40.851Z,72.92
2022-12-16T11:59:23.791Z,73.34
2022-12-16T12:01:59.267Z,72.49
2022-12-16T12:04:26.147Z,72.76
2022-12-16T12:07:25.036Z,72.58
2022-12-16T12:10:06.890Z,73.45
2022-12-16T12:12:48.977Z,73.72
2022-12-16T12:15:34.727Z,73.61
2022-12-16T12:18:39.107Z,73.48
2022-12-16T12:21:35.126Z,73.58
2022-12-16T12:24:25.273Z,73.24
2022-12-16T12:27:16.696Z,72.36
2022-12-16T12:29:46.091Z,72.62
2022-12-16T12:32:12.656Z,72.92
2022-12-16T12:35:02.428Z,73.18
2022-12-16T12:37:39.563Z,72.56
2022-12-16T12:40:19.336Z,71.93
2022-12-16T12:42:51.651Z,72.89
2022-12-16T12:45:43.059Z,72.17
2022-12-16T12:48:22.378Z,71.79
2022-12-16T12:51:18.483Z,71.61
2022-12-16T12:53:45.118Z,71.72
2022-12-16T12:56:33.726Z,71.73
2022-12-16T12:59:08.298Z,73.22
2022-12-16T13:01:40.435Z,73.83
2022-12-16T13:04:13.703Z,72.96
2022-12-16T13:06:41.521Z,73.52
2022-12-16T13:09:37.869Z,72.91
2022-12-16T13:12:07.286Z,71.22
2022-12-16T13:14:33.847Z,70.02
2022-12-16T13:17:00.783Z,70.94
2022-12-16T13:19:30.426Z,70.02
2022-12-16T13:21:57.416Z,69.44
2022-12-16T13:24:47.035Z,68.84
2022-12-16T13:27:15.405Z,69.36
2022-12-16T13:30:01.902Z,70.38
2022-12-16T13:32:28.787Z,69.75
2022-12-16T13:35:13.984Z,70.79
2022-12-16T13:38:10.988Z,70.17
2022-12-16T13:40:55.781Z,71.61
2022-12-16T13:43:47.654Z,70.80
2022-12-16T13:46:16.800Z,71.04
2022-12-16T13:48:43.541Z,70.31
2022-12-16T13:51:39.270Z,69.68
2022-12-16T13:54:07.649Z,69.91
2022-12-16T13:56:44.156Z,70.23
2022-12-16T13:59:18.697Z,70.13
2022-12-16T14:01:56.586Z,69.31
2022-12-16T14:04:28.271Z,69.43
2022-12-16T14:07:01.096Z,70.21
2022-12-16T14:09:37.142Z,70.66
2022-12-16T14:12:14.535Z,70.65
2022-12-16T14:14:59.608Z,71.06
2022-12-16T14:17:35.528Z,71.84
2022-12-16T14:20:31.691Z,71.09
2022-12-16T14:23:05.429Z,70.41
2022-12-16T14:25:32.965Z,70.72
2022-12-16T14:28:00.951Z,69.86
2022-12-16T14:30:28.281Z,69.77
2022-12-16T14:32:54.870Z,69.57
2022-12-16T14:35:25.750Z,70.45
2022-12-16T14:37:52.910Z,72.39
2022-12-16T14:40:30.095Z,72.18
2022-12-16T14:42:57.034Z,71.99
2022-12-16T14:45:33.617Z,72.21
2022-12-16T14:48:00.458Z,72.36
2022-12-16T14:50:29.723Z,73.05
2022-12-16T14:53:19.369Z,72.68
2022-12-16T14:55:46.132Z,72.23
2022-12-16T14:58:21.502Z,71.55
2022-12-16T15:00:49.572Z,71.23
2022-12-16T15:03:24.511Z,71.15
2022-12-16T15:05:53.167Z,70.87
2022-12-16T15:08:21.597Z,70.94
2022-12-16T15:10:48.620Z,71.10
2022-12-16T15:13:18.184Z,70.48
2022-12-16T15:15:48.325Z,70.39
2022-12-16T15:18:44.362Z,70.17
2022-12-16T15:21:11.273Z,70.19
2022-12-16T15:23:45.353Z,70.05
2022-12-16T15:26:23.686Z,69.49
2022-12-16T15:28:50.692Z,69.66
2022-12-16T15:31:32.470Z,69.47
2022-12-16T15:34:38.375Z,69.18
2022-12-16T15:37:16.044Z,69.54
2022-12-16T15:39:42.815Z,69.23
2022-12-16T15:42:24.338Z,69.72
2022-12-16T15:44:52.303Z,69.23
2022-12-16T15:47:31.880Z,69.81
2022-12-16T15:50:07.093Z,69.78
2022-12-16T15:52:44.719Z,69.43
2022-12-16T15:55:30.375Z,70.10
2022-12-16T15:57:57.368Z,70.21
2022-12-16T16:00:27.072Z,70.30
2022-12-16T16:02:54.114Z,69.86
2022-12-16T16:05:23.842Z,69.93
2022-12-16T16:07:50.619Z,69.43
2022-12-16T16:10:21.248Z,69.45
2022-12-16T16:12:47.909Z,69.74
2022-12-16T16:15:15.007Z,69.95
2022-12-16T16:17:41.911Z,69.40
2022-12-16T16:20:14.795Z,69.49
2022-12-16T16:22:41.521Z,69.46
2022-12-16T16:25:09.217Z,69.35
2022-12-16T16:27:35.873Z,69.67
2022-12-16T16:30:02.706Z,69.86
2022-12-16T16:32:30.477Z,69.77
2022-12-16T16:34:57.049Z,69.60
2022-12-16T16:37:23.823Z,69.75
2022-12-16T16:39:50.610Z,70.54
2022-12-16T16:42:18.221Z,70.28
2022-12-16T16:44:44.796Z,70.50
2022-12-16T16:47:16.668Z,70.06
2022-12-16T16:49:46.635Z,70.40
2022-12-16T16:52:15.811Z,70.11
2022-12-16T16:54:42.512Z,70.46
2022-12-16T16:57:10.103Z,70.05
2022-12-16T16:59:36.830Z,70.43
2022-12-16T17:02:14.583Z,70.53
2022-12-16T17:04:41.540Z,71.21
2022-12-16T17:07:08.199Z,70.35
2022-12-16T17:09:34.985Z,71.15
2022-12-16T17:12:01.618Z,71.06
2022-12-16T17:14:28.332Z,70.78
2022-12-16T17:16:54.997Z,70.85
2022-12-16T17:19:23.171Z,70.89
2022-12-16T17:21:49.931Z,70.36
2022-12-16T17:24:16.695Z,70.84
2022-12-16T17:26:44.733Z,70.78
2022-12-16T17:29:20.587Z,70.54
2022-12-16T17:31:47.355Z,70.55
2022-12-16T17:34:14.072Z,71.05
2022-12-16T17:36:40.795Z,70.31
2022-12-16T17:39:07.463Z,69.92
2022-12-16T17:41:34.414Z,70.05
2022-12-16T17:44:01.096Z,70.93
2022-12-16T17:46:27.940Z,70.42
2022-12-16T17:48:56.423Z,70.52
2022-12-16T17:51:23.128Z,70.68
2022-12-16T17:53:49.748Z,70.41
2022-12-16T17:56:16.436Z,70.20
2022-12-16T17:58:43.163Z,70.88
2022-12-16T18:01:09.867Z,70.85
2022-12-16T18:03:36.900Z,70.98
2022-12-16T18:06:04.189Z,70.69
2022-12-16T18:08:32.352Z,71.37
2022-12-16T18:10:59.153Z,71.22
2022-12-16T18:13:27.283Z,70.99
2022-12-16T18:15:54.020Z,71.24
2022-12-16T18:18:20.969Z,70.52
2022-12-16T18:20:47.917Z,71.05
2022-12-16T18:23:14.529Z,71.25
2022-12-16T18:25:41.270Z,71.17
2022-12-16T18:28:07.921Z,71.15
2022-12-16T18:30:35.883Z,71.59
2022-12-16T18:33:02.516Z,71.71
2022-12-16T18:35:29.230Z,71.86
2022-12-16T18:37:55.809Z,71.20
2022-12-16T18:40:22.512Z,71.66
2022-12-16T18:42:49.369Z,71.52
2022-12-16T18:45:16.221Z,71.06
2022-12-16T18:47:42.807Z,71.34
2022-12-16T18:50:09.852Z,71.42
2022-12-16T18:52:36.443Z,71.96
2022-12-16T18:55:03.688Z,71.55
2022-12-16T18:57:33.908Z,71.78
2022-12-16T19:00:04.031Z,72.04
2022-12-16T19:02:30.762Z,72.92
2022-12-16T19:04:57.709Z,72.53
2022-12-16T19:07:24.359Z,72.87
2022-12-16T19:09:51.183Z,72.96
2022-12-16T19:12:17.889Z,73.03
2022-12-16T19:14:44.783Z,72.62
2022-12-16T19:17:11.366Z,72.89
2022-12-16T19:19:38.262Z,72.91
2022-12-16T19:22:04.883Z,73.07
2022-12-16T19:24:31.576Z,72.69
2022-12-16T19:26:58.270Z,73.73
2022-12-16T19:29:25.126Z,73.57
2022-12-16T19:31:51.951Z,73.59
2022-12-16T19:34:18.704Z,73.37
2022-12-16T19:36:46.960Z,73.75
2022-12-16T19:39:14.245Z,73.99
2022-12-16T19:41:40.914Z,73.12
2022-12-16T19:44:07.677Z,73.84
2022-12-16T19:46:34.659Z,75.23
2022-12-16T19:49:01.371Z,74.54
2022-12-16T19:51:28.189Z,74.33
2022-12-16T19:53:56.252Z,74.79
2022-12-16T19:56:23.822Z,74.62
2022-12-16T19:58:50.559Z,73.97
2022-12-16T20:01:18.440Z,73.92
2022-12-16T20:03:46.014Z,73.20
2022-12-16T20:06:13.586Z,73.59
2022-12-16T20:08:40.462Z,73.58
2022-12-16T20:11:08.134Z,73.07
2022-12-16T20:13:34.794Z,72.73
2022-12-16T20:16:04.540Z,73.16
2022-12-16T20:18:31.485Z,72.93
2022-12-16T20:21:02.496Z,73.91
2022-12-16T20:23:29.189Z,73.73
2022-12-16T20:26:01.572Z,74.01
2022-12-16T20:28:28.384Z,74.35
2022-12-16T20:30:56.320Z,73.94
2022-12-16T20:33:23.366Z,73.81
2022-12-16T20:36:00.549Z,74.42
2022-12-16T20:38:27.327Z,74.37
2022-12-16T20:41:02.057Z,74.26
2022-12-16T20:43:28.783Z,74.54
2022-12-16T20:45:56.205Z,75.04
2022-12-16T20:48:22.909Z,74.67
2022-12-16T20:50:56.059Z,74.18
2022-12-16T20:53:23.285Z,73.66
2022-12-16T20:55:50.003Z,74.02
2022-12-16T20:58:18.665Z,74.28
2022-12-16T21:00:45.512Z,74.81
2022-12-16T21:03:12.340Z,74.70
2022-12-16T21:05:39.032Z,73.92
2022-12-16T21:08:05.791Z,73.89
2022-12-16T21:10:32.693Z,74.21
2022-12-16T21:13:08.194Z,74.11
2022-12-16T21:15:34.898Z,75.04
2022-12-16T21:18:02.139Z,75.21
2022-12-16T21:20:28.938Z,74.78
2022-12-16T21:23:06.403Z,74.75
2022-12-16T21:25:33.763Z,74.54
2022-12-16T21:28:03.599Z,73.34
2022-12-16T21:30:30.308Z,73.92
2022-12-16T21:32:57.358Z,74.97
2022-12-16T21:35:24.323Z,74.20
2022-12-16T21:37:53.093Z,74.09
2022-12-16T21:40:20.357Z,74.32
2022-12-16T21:42:46.967Z,74.18
2022-12-16T21:45:13.723Z,73.95
2022-12-16T21:47:40.951Z,74.57
2022-12-16T21:50:09.672Z,74.12
2022-12-16T21:52:36.391Z,73.53
2022-12-16T21:55:03.206Z,73.78
2022-12-16T21:57:29.792Z,73.24
2022-12-16T21:59:56.503Z,73.21
2022-12-16T22:02:23.503Z,72.30
2022-12-16T22:04:50.345Z,72.81
2022-12-16T22:07:17.010Z,72.95
2022-12-16T22:09:43.792Z,72.96
2022-12-16T22:12:10.660Z,72.63
2022-12-16T22:14:37.389Z,72.76
2022-12-16T22:17:05.716Z,72.84
2022-12-16T22:19:35.957Z,72.80
2022-12-16T22:22:03.038Z,72.97
2022-12-16T22:24:30.272Z,73.03
2022-12-16T22:26:57.404Z,72.90
2022-12-16T22:29:24.301Z,72.75
2022-12-16T22:31:50.925Z,73.50
2022-12-16T22:34:19.010Z,73.50
2022-12-16T22:36:46.054Z,73.83
2022-12-16T22:39:13.394Z,74.26
2022-12-16T22:41:40.095Z,74.59
2022-12-16T22:44:31.579Z,74.78
2022-12-16T22:46:58.485Z,75.05
2022-12-16T22:49:25.107Z,75.73
2022-12-16T22:51:51.889Z,74.84
2022-12-16T22:54:18.523Z,75.46
2022-12-16T22:56:45.350Z,75.86
2022-12-16T22:59:11.966Z,74.78
2022-12-16T23:01:38.702Z,74.70
2022-12-16T23:04:05.408Z,74.86
2022-12-16T23:06:32.863Z,74.54
2022-12-16T23:08:59.454Z,74.54
2022-12-16T23:11:32.948Z,73.91
2022-12-16T23:13:59.770Z,74.08
2022-12-16T23:16:26.452Z,74.16
2022-12-16T23:18:56.495Z,74.78
2022-12-16T23:21:23.544Z,74.30
2022-12-16T23:23:53.309Z,73.51
2022-12-16T23:26:20.579Z,73.21
2022-12-16T23:28:55.145Z,73.78
2022-12-16T23:31:23.525Z,73.46
2022-12-16T23:33:50.147Z,74.04
2022-12-16T23:36:16.965Z,76.14
2022-12-16T23:38:43.799Z,78.02
2022-12-16T23:41:10.547Z,77.76
2022-12-16T23:43:41.631Z,76.04
2022-12-16T23:46:08.819Z,75.95
2022-12-16T23:48:36.378Z,75.45
2022-12-16T23:51:03.391Z,74.83
2022-12-16T23:53:30.059Z,74.37
2022-12-16T23:55:59.183Z,74.20
2022-12-16T23:58:25.850Z,73.51
